Skip Navigation Links Skip Navigation Links

Current Weather

San Francisco International, San Francisco

For information only: do not use for flight planning or navigation.
Latest weather
Observation time Wednesday, December 13, 2017 5:56 PM PST
Local time Wednesday, December 13, 2017 6:08 PM PST
Flight conditions Visual Meteorological Conditions
Winds
Wind direction West-Northwest (290°)
Wind speed 10 mph
Visibility 10 mi.
Sky condition
Ceiling unlimited
Cloud layer few clouds 20,000 ft.
Temperature 55°F
Dewpoint 37°F
Altimeter 30.07 in.Hg
Derived measurements
Relative humidity 51%
Density altitude -306 ft.
Sea-level pressure 30.07 in.Hg
Remarks
Automated weather observing station with precipitation discriminator.
METAR KSFO 140156Z 29009KT 10SM FEW200 13/03 A3007 RMK AO2 SLP182 T01280028

Settings

Location code

InnerDrive.Weather 4.0.6144.1 Release CLR 4.0.30319.36366
Copyright ©2015 Inner Drive Technology. All rights reserved. Portions Copyright ©1986-2015 David Braverman.

Find weather

Site navigation


Skip Navigation Links

Place info

Page info

PayPal - The safer, easier way to pay online!

Return home.

Copyright ©2017 Inner Drive Technology. Purveyors of fine, hand-crafted computer software. Page printed 2017-12-14T02:08:50 UTC.